sensor_id;sensor_type;location;lat;lon;timestamp;temperature;humidity
28767;DHT22;15921;52.034;20.650;2024-01-10T00:01:42;-8.90;99.90
28767;DHT22;15921;52.034;20.650;2024-01-10T00:04:09;-8.90;99.90
28767;DHT22;15921;52.034;20.650;2024-01-10T00:06:35;-8.90;99.90
28767;DHT22;15921;52.034;20.650;2024-01-10T00:09:01;-8.90;99.90
28767;DHT22;15921;52.034;20.650;2024-01-10T00:11:27;-8.90;99.90
28767;DHT22;15921;52.034;20.650;2024-01-10T00:13:53;-8.90;99.90
28767;DHT22;15921;52.034;20.650;2024-01-10T00:16:25;-8.90;99.90
28767;DHT22;15921;52.034;20.650;2024-01-10T00:18:51;-8.90;99.90
28767;DHT22;15921;52.034;20.650;2024-01-10T00:21:17;-8.90;99.90
28767;DHT22;15921;52.034;20.650;2024-01-10T00:23:42;-8.90;99.90
28767;DHT22;15921;52.034;20.650;2024-01-10T00:26:08;-8.90;99.90
28767;DHT22;15921;52.034;20.650;2024-01-10T00:28:34;-8.90;99.90
28767;DHT22;15921;52.034;20.650;2024-01-10T00:30:59;-8.90;99.90
28767;DHT22;15921;52.034;20.650;2024-01-10T00:33:25;-8.90;99.90
28767;DHT22;15921;52.034;20.650;2024-01-10T00:35:51;-8.90;99.90
28767;DHT22;15921;52.034;20.650;2024-01-10T00:38:16;-8.90;99.90
28767;DHT22;15921;52.034;20.650;2024-01-10T00:40:42;-8.90;99.90
28767;DHT22;15921;52.034;20.650;2024-01-10T00:43:08;-8.90;99.90
28767;DHT22;15921;52.034;20.650;2024-01-10T00:45:34;-8.90;99.90
28767;DHT22;15921;52.034;20.650;2024-01-10T00:47:59;-8.90;99.90
28767;DHT22;15921;52.034;20.650;2024-01-10T00:50:25;-8.90;99.90
28767;DHT22;15921;52.034;20.650;2024-01-10T00:52:51;-8.90;99.90
28767;DHT22;15921;52.034;20.650;2024-01-10T00:55:16;-8.90;99.90
28767;DHT22;15921;52.034;20.650;2024-01-10T00:57:42;-8.90;99.90
28767;DHT22;15921;52.034;20.650;2024-01-10T01:00:09;-8.90;99.90
28767;DHT22;15921;52.034;20.650;2024-01-10T01:02:36;-8.90;99.90
28767;DHT22;15921;52.034;20.650;2024-01-10T01:05:06;-8.80;99.90
28767;DHT22;15921;52.034;20.650;2024-01-10T01:07:34;-8.80;99.90
28767;DHT22;15921;52.034;20.650;2024-01-10T01:10:00;-8.80;99.90
28767;DHT22;15921;52.034;20.650;2024-01-10T01:12:26;-8.80;99.90
28767;DHT22;15921;52.034;20.650;2024-01-10T01:14:52;-8.80;99.90
28767;DHT22;15921;52.034;20.650;2024-01-10T01:17:17;-8.70;99.90
28767;DHT22;15921;52.034;20.650;2024-01-10T01:19:43;-8.70;99.90
28767;DHT22;15921;52.034;20.650;2024-01-10T01:22:09;-8.70;99.90
28767;DHT22;15921;52.034;20.650;2024-01-10T01:24:35;-8.70;99.90
28767;DHT22;15921;52.034;20.650;2024-01-10T01:27:02;-8.70;99.90
28767;DHT22;15921;52.034;20.650;2024-01-10T01:29:28;-8.60;99.90
28767;DHT22;15921;52.034;20.650;2024-01-10T01:31:54;-8.60;99.90
28767;DHT22;15921;52.034;20.650;2024-01-10T01:34:20;-8.60;99.90
28767;DHT22;15921;52.034;20.650;2024-01-10T01:36:45;-8.60;99.90
28767;DHT22;15921;52.034;20.650;2024-01-10T01:39:11;-8.60;99.90
28767;DHT22;15921;52.034;20.650;2024-01-10T01:41:39;-8.60;99.90
28767;DHT22;15921;52.034;20.650;2024-01-10T01:44:05;-8.60;99.90
28767;DHT22;15921;52.034;20.650;2024-01-10T01:46:31;-8.60;99.90
28767;DHT22;15921;52.034;20.650;2024-01-10T01:48:58;-8.60;99.90
28767;DHT22;15921;52.034;20.650;2024-01-10T01:51:23;-8.60;99.90
28767;DHT22;15921;52.034;20.650;2024-01-10T01:53:50;-8.60;99.90
28767;DHT22;15921;52.034;20.650;2024-01-10T01:56:16;-8.60;99.90
28767;DHT22;15921;52.034;20.650;2024-01-10T01:58:43;-8.60;99.90
28767;DHT22;15921;52.034;20.650;2024-01-10T02:01:09;-8.60;99.90
28767;DHT22;15921;52.034;20.650;2024-01-10T02:03:37;-8.60;99.90
28767;DHT22;15921;52.034;20.650;2024-01-10T02:06:03;-8.60;99.90
28767;DHT22;15921;52.034;20.650;2024-01-10T02:08:32;-8.60;99.90
28767;DHT22;15921;52.034;20.650;2024-01-10T02:10:59;-8.70;99.90
28767;DHT22;15921;52.034;20.650;2024-01-10T02:13:25;-8.70;99.90
28767;DHT22;15921;52.034;20.650;2024-01-10T02:15:51;-8.70;99.90
28767;DHT22;15921;52.034;20.650;2024-01-10T02:18:17;-8.70;99.90
28767;DHT22;15921;52.034;20.650;2024-01-10T02:20:44;-8.70;99.70
28767;DHT22;15921;52.034;20.650;2024-01-10T02:23:10;-8.70;99.60
28767;DHT22;15921;52.034;20.650;2024-01-10T02:25:36;-8.70;99.60
28767;DHT22;15921;52.034;20.650;2024-01-10T02:28:02;-8.70;99.50
28767;DHT22;15921;52.034;20.650;2024-01-10T02:30:28;-8.70;99.30
28767;DHT22;15921;52.034;20.650;2024-01-10T02:32:54;-8.60;99.20
28767;DHT22;15921;52.034;20.650;2024-01-10T02:35:20;-8.60;99.10
28767;DHT22;15921;52.034;20.650;2024-01-10T02:37:45;-8.60;98.90
28767;DHT22;15921;52.034;20.650;2024-01-10T02:40:11;-8.50;98.80
28767;DHT22;15921;52.034;20.650;2024-01-10T02:42:37;-8.50;98.80
28767;DHT22;15921;52.034;20.650;2024-01-10T02:45:04;-8.50;98.70
28767;DHT22;15921;52.034;20.650;2024-01-10T02:47:31;-8.50;98.60
28767;DHT22;15921;52.034;20.650;2024-01-10T02:49:57;-8.40;98.50
28767;DHT22;15921;52.034;20.650;2024-01-10T02:52:22;-8.50;98.40
28767;DHT22;15921;52.034;20.650;2024-01-10T02:54:48;-8.40;98.40
28767;DHT22;15921;52.034;20.650;2024-01-10T02:57:14;-8.50;98.30
28767;DHT22;15921;52.034;20.650;2024-01-10T02:59:39;-8.50;98.30
28767;DHT22;15921;52.034;20.650;2024-01-10T03:02:05;-8.40;98.20
28767;DHT22;15921;52.034;20.650;2024-01-10T03:04:31;-8.40;98.00
28767;DHT22;15921;52.034;20.650;2024-01-10T03:06:56;-8.40;98.00
28767;DHT22;15921;52.034;20.650;2024-01-10T03:09:23;-8.40;97.90
28767;DHT22;15921;52.034;20.650;2024-01-10T03:11:48;-8.40;97.70
28767;DHT22;15921;52.034;20.650;2024-01-10T03:14:14;-8.40;97.50
28767;DHT22;15921;52.034;20.650;2024-01-10T03:16:40;-8.50;97.40
28767;DHT22;15921;52.034;20.650;2024-01-10T03:19:06;-8.40;97.50
28767;DHT22;15921;52.034;20.650;2024-01-10T03:21:31;-8.40;97.50
28767;DHT22;15921;52.034;20.650;2024-01-10T03:23:58;-8.40;97.40
28767;DHT22;15921;52.034;20.650;2024-01-10T03:26:25;-8.50;97.40
28767;DHT22;15921;52.034;20.650;2024-01-10T03:28:51;-8.50;97.40
28767;DHT22;15921;52.034;20.650;2024-01-10T03:31:17;-8.50;97.40
28767;DHT22;15921;52.034;20.650;2024-01-10T03:33:43;-8.50;97.40
28767;DHT22;15921;52.034;20.650;2024-01-10T03:36:14;-8.50;97.40
28767;DHT22;15921;52.034;20.650;2024-01-10T03:38:40;-8.50;97.50
28767;DHT22;15921;52.034;20.650;2024-01-10T03:41:05;-8.50;97.40
28767;DHT22;15921;52.034;20.650;2024-01-10T03:43:31;-8.50;97.60
28767;DHT22;15921;52.034;20.650;2024-01-10T03:45:58;-8.60;97.60
28767;DHT22;15921;52.034;20.650;2024-01-10T03:48:23;-8.60;97.70
28767;DHT22;15921;52.034;20.650;2024-01-10T03:50:49;-8.60;97.60
28767;DHT22;15921;52.034;20.650;2024-01-10T03:53:15;-8.60;97.60
28767;DHT22;15921;52.034;20.650;2024-01-10T03:55:41;-8.60;97.60
28767;DHT22;15921;52.034;20.650;2024-01-10T03:58:07;-8.60;97.60
28767;DHT22;15921;52.034;20.650;2024-01-10T04:00:32;-8.60;98.10
28767;DHT22;15921;52.034;20.650;2024-01-10T04:02:58;-8.60;97.80
28767;DHT22;15921;52.034;20.650;2024-01-10T04:05:24;-8.60;97.90
28767;DHT22;15921;52.034;20.650;2024-01-10T04:07:51;-8.70;98.00
28767;DHT22;15921;52.034;20.650;2024-01-10T04:10:17;-8.70;98.10
28767;DHT22;15921;52.034;20.650;2024-01-10T04:12:43;-8.70;98.20
28767;DHT22;15921;52.034;20.650;2024-01-10T04:15:10;-8.70;98.20
28767;DHT22;15921;52.034;20.650;2024-01-10T04:17:36;-8.60;98.30
28767;DHT22;15921;52.034;20.650;2024-01-10T04:20:02;-8.60;98.30
28767;DHT22;15921;52.034;20.650;2024-01-10T04:22:28;-8.60;98.30
28767;DHT22;15921;52.034;20.650;2024-01-10T04:24:59;-8.60;98.40
28767;DHT22;15921;52.034;20.650;2024-01-10T04:27:25;-8.60;98.50
28767;DHT22;15921;52.034;20.650;2024-01-10T04:29:51;-8.60;98.50
28767;DHT22;15921;52.034;20.650;2024-01-10T04:32:17;-8.60;98.50
28767;DHT22;15921;52.034;20.650;2024-01-10T04:34:42;-8.60;98.50
28767;DHT22;15921;52.034;20.650;2024-01-10T04:37:08;-8.60;98.60
28767;DHT22;15921;52.034;20.650;2024-01-10T04:39:34;-8.60;98.60
28767;DHT22;15921;52.034;20.650;2024-01-10T04:42:00;-8.60;98.70
28767;DHT22;15921;52.034;20.650;2024-01-10T04:44:26;-8.60;98.70
28767;DHT22;15921;52.034;20.650;2024-01-10T04:46:51;-8.50;98.80
28767;DHT22;15921;52.034;20.650;2024-01-10T04:49:17;-8.50;98.60
28767;DHT22;15921;52.034;20.650;2024-01-10T04:51:43;-8.50;98.60
28767;DHT22;15921;52.034;20.650;2024-01-10T04:54:09;-8.50;98.70
28767;DHT22;15921;52.034;20.650;2024-01-10T04:56:35;-8.60;98.70
28767;DHT22;15921;52.034;20.650;2024-01-10T04:59:04;-8.50;98.80
28767;DHT22;15921;52.034;20.650;2024-01-10T05:01:31;-8.50;98.70
28767;DHT22;15921;52.034;20.650;2024-01-10T05:03:57;-8.50;98.60
28767;DHT22;15921;52.034;20.650;2024-01-10T05:06:22;-8.50;98.60
28767;DHT22;15921;52.034;20.650;2024-01-10T05:08:48;-8.50;98.50
28767;DHT22;15921;52.034;20.650;2024-01-10T05:11:15;-8.50;98.60
28767;DHT22;15921;52.034;20.650;2024-01-10T05:13:41;-8.50;98.60
28767;DHT22;15921;52.034;20.650;2024-01-10T05:16:06;-8.40;98.60
28767;DHT22;15921;52.034;20.650;2024-01-10T05:18:32;-8.40;98.40
28767;DHT22;15921;52.034;20.650;2024-01-10T05:20:58;-8.40;98.40
28767;DHT22;15921;52.034;20.650;2024-01-10T05:23:24;-8.40;98.40
28767;DHT22;15921;52.034;20.650;2024-01-10T05:25:50;-8.40;98.40
28767;DHT22;15921;52.034;20.650;2024-01-10T05:28:16;-8.40;98.40
28767;DHT22;15921;52.034;20.650;2024-01-10T05:30:41;-8.30;98.40
28767;DHT22;15921;52.034;20.650;2024-01-10T05:33:10;-8.30;98.30
28767;DHT22;15921;52.034;20.650;2024-01-10T05:35:37;-8.30;98.20
28767;DHT22;15921;52.034;20.650;2024-01-10T05:38:03;-8.30;98.10
28767;DHT22;15921;52.034;20.650;2024-01-10T05:40:29;-8.30;98.10
28767;DHT22;15921;52.034;20.650;2024-01-10T05:43:00;-8.30;98.00
28767;DHT22;15921;52.034;20.650;2024-01-10T05:45:26;-8.30;97.90
28767;DHT22;15921;52.034;20.650;2024-01-10T05:47:52;-8.30;97.90
28767;DHT22;15921;52.034;20.650;2024-01-10T05:50:18;-8.30;97.90
28767;DHT22;15921;52.034;20.650;2024-01-10T05:52:44;-8.30;97.90
28767;DHT22;15921;52.034;20.650;2024-01-10T05:55:10;-8.30;97.90
28767;DHT22;15921;52.034;20.650;2024-01-10T05:57:36;-8.30;97.80
28767;DHT22;15921;52.034;20.650;2024-01-10T06:00:02;-8.40;97.70
28767;DHT22;15921;52.034;20.650;2024-01-10T06:02:28;-8.30;97.80
28767;DHT22;15921;52.034;20.650;2024-01-10T06:04:54;-8.30;97.70
28767;DHT22;15921;52.034;20.650;2024-01-10T06:07:19;-8.30;97.70
28767;DHT22;15921;52.034;20.650;2024-01-10T06:09:46;-8.40;97.60
28767;DHT22;15921;52.034;20.650;2024-01-10T06:12:13;-8.40;97.60
28767;DHT22;15921;52.034;20.650;2024-01-10T06:14:39;-8.40;97.70
28767;DHT22;15921;52.034;20.650;2024-01-10T06:17:04;-8.40;97.70
28767;DHT22;15921;52.034;20.650;2024-01-10T06:19:31;-8.40;97.80
28767;DHT22;15921;52.034;20.650;2024-01-10T06:21:57;-8.50;97.80
28767;DHT22;15921;52.034;20.650;2024-01-10T06:24:23;-8.50;97.80
28767;DHT22;15921;52.034;20.650;2024-01-10T06:26:48;-8.50;97.80
28767;DHT22;15921;52.034;20.650;2024-01-10T06:29:15;-8.50;97.90
28767;DHT22;15921;52.034;20.650;2024-01-10T06:31:41;-8.50;97.90
28767;DHT22;15921;52.034;20.650;2024-01-10T06:34:07;-8.50;98.00
28767;DHT22;15921;52.034;20.650;2024-01-10T06:36:33;-8.50;98.00
28767;DHT22;15921;52.034;20.650;2024-01-10T06:38:58;-8.50;98.00
28767;DHT22;15921;52.034;20.650;2024-01-10T06:41:24;-8.40;98.00
28767;DHT22;15921;52.034;20.650;2024-01-10T06:43:53;-8.40;98.00
28767;DHT22;15921;52.034;20.650;2024-01-10T06:46:19;-8.40;98.00
28767;DHT22;15921;52.034;20.650;2024-01-10T06:48:45;-8.40;98.20
28767;DHT22;15921;52.034;20.650;2024-01-10T06:51:15;-8.30;97.90
28767;DHT22;15921;52.034;20.650;2024-01-10T06:53:41;-8.30;97.90
28767;DHT22;15921;52.034;20.650;2024-01-10T06:56:07;-8.30;97.90
28767;DHT22;15921;52.034;20.650;2024-01-10T06:58:35;-8.30;97.90
28767;DHT22;15921;52.034;20.650;2024-01-10T07:01:01;-8.20;97.90
28767;DHT22;15921;52.034;20.650;2024-01-10T07:03:27;-8.20;97.90
28767;DHT22;15921;52.034;20.650;2024-01-10T07:05:52;-8.20;97.80
28767;DHT22;15921;52.034;20.650;2024-01-10T07:08:18;-8.10;97.70
28767;DHT22;15921;52.034;20.650;2024-01-10T07:10:44;-8.10;97.70
28767;DHT22;15921;52.034;20.650;2024-01-10T07:13:10;-8.00;98.00
28767;DHT22;15921;52.034;20.650;2024-01-10T07:15:36;-8.00;97.60
28767;DHT22;15921;52.034;20.650;2024-01-10T07:18:04;-8.00;97.50
28767;DHT22;15921;52.034;20.650;2024-01-10T07:20:30;-7.90;97.50
28767;DHT22;15921;52.034;20.650;2024-01-10T07:22:55;-7.90;97.40
28767;DHT22;15921;52.034;20.650;2024-01-10T07:25:21;-7.90;97.30
28767;DHT22;15921;52.034;20.650;2024-01-10T07:27:51;-7.80;97.20
28767;DHT22;15921;52.034;20.650;2024-01-10T07:30:16;-7.70;97.20
28767;DHT22;15921;52.034;20.650;2024-01-10T07:32:43;-7.70;97.00
28767;DHT22;15921;52.034;20.650;2024-01-10T07:35:10;-7.60;96.90
28767;DHT22;15921;52.034;20.650;2024-01-10T07:37:40;-7.50;96.80
28767;DHT22;15921;52.034;20.650;2024-01-10T07:40:07;-7.50;96.70
28767;DHT22;15921;52.034;20.650;2024-01-10T07:42:39;-7.50;96.50
28767;DHT22;15921;52.034;20.650;2024-01-10T07:45:05;-7.40;96.40
28767;DHT22;15921;52.034;20.650;2024-01-10T07:47:32;-7.30;96.10
28767;DHT22;15921;52.034;20.650;2024-01-10T07:49:59;-7.30;96.00
28767;DHT22;15921;52.034;20.650;2024-01-10T07:52:25;-7.20;96.00
28767;DHT22;15921;52.034;20.650;2024-01-10T07:54:51;-7.10;95.80
28767;DHT22;15921;52.034;20.650;2024-01-10T07:57:16;-7.10;95.60
28767;DHT22;15921;52.034;20.650;2024-01-10T07:59:47;-7.00;95.50
28767;DHT22;15921;52.034;20.650;2024-01-10T08:02:12;-6.90;95.40
28767;DHT22;15921;52.034;20.650;2024-01-10T08:04:38;-6.90;95.30
28767;DHT22;15921;52.034;20.650;2024-01-10T08:07:04;-6.80;95.00
28767;DHT22;15921;52.034;20.650;2024-01-10T08:09:29;-6.80;94.80
28767;DHT22;15921;52.034;20.650;2024-01-10T08:11:55;-6.70;94.70
28767;DHT22;15921;52.034;20.650;2024-01-10T08:14:21;-6.60;94.80
28767;DHT22;15921;52.034;20.650;2024-01-10T08:16:46;-6.60;94.60
28767;DHT22;15921;52.034;20.650;2024-01-10T08:19:13;-6.50;94.40
28767;DHT22;15921;52.034;20.650;2024-01-10T08:21:39;-6.50;94.40
28767;DHT22;15921;52.034;20.650;2024-01-10T08:24:05;-6.40;94.40
28767;DHT22;15921;52.034;20.650;2024-01-10T08:26:31;-6.30;94.40
28767;DHT22;15921;52.034;20.650;2024-01-10T08:28:57;-6.30;93.90
28767;DHT22;15921;52.034;20.650;2024-01-10T08:31:23;-6.20;93.90
28767;DHT22;15921;52.034;20.650;2024-01-10T08:33:49;-6.20;93.90
28767;DHT22;15921;52.034;20.650;2024-01-10T08:36:16;-6.10;93.90
28767;DHT22;15921;52.034;20.650;2024-01-10T08:38:42;-6.00;93.80
28767;DHT22;15921;52.034;20.650;2024-01-10T08:41:08;-6.00;93.50
28767;DHT22;15921;52.034;20.650;2024-01-10T08:43:37;-5.90;93.40
28767;DHT22;15921;52.034;20.650;2024-01-10T08:46:03;-5.90;93.30
28767;DHT22;15921;52.034;20.650;2024-01-10T08:48:29;-5.80;93.30
28767;DHT22;15921;52.034;20.650;2024-01-10T08:50:55;-5.80;93.20
28767;DHT22;15921;52.034;20.650;2024-01-10T08:53:22;-5.70;93.00
28767;DHT22;15921;52.034;20.650;2024-01-10T08:55:48;-5.70;93.00
28767;DHT22;15921;52.034;20.650;2024-01-10T08:58:14;-5.60;92.70
28767;DHT22;15921;52.034;20.650;2024-01-10T09:00:39;-5.60;92.50
28767;DHT22;15921;52.034;20.650;2024-01-10T09:03:05;-5.50;92.50
28767;DHT22;15921;52.034;20.650;2024-01-10T09:05:31;-5.40;92.50
28767;DHT22;15921;52.034;20.650;2024-01-10T09:07:59;-5.40;92.20
28767;DHT22;15921;52.034;20.650;2024-01-10T09:10:25;-5.30;92.20
28767;DHT22;15921;52.034;20.650;2024-01-10T09:12:54;-5.20;92.30
28767;DHT22;15921;52.034;20.650;2024-01-10T09:15:20;-5.10;91.70
28767;DHT22;15921;52.034;20.650;2024-01-10T09:17:46;-5.00;91.60
28767;DHT22;15921;52.034;20.650;2024-01-10T09:20:12;-4.90;91.50
28767;DHT22;15921;52.034;20.650;2024-01-10T09:22:39;-4.90;91.40
28767;DHT22;15921;52.034;20.650;2024-01-10T09:25:05;-4.70;91.40
28767;DHT22;15921;52.034;20.650;2024-01-10T09:27:34;-4.70;90.80
28767;DHT22;15921;52.034;20.650;2024-01-10T09:30:03;-4.60;90.60
28767;DHT22;15921;52.034;20.650;2024-01-10T09:32:29;-4.60;90.40
28767;DHT22;15921;52.034;20.650;2024-01-10T09:34:55;-4.50;90.20
28767;DHT22;15921;52.034;20.650;2024-01-10T09:37:21;-4.40;90.10
28767;DHT22;15921;52.034;20.650;2024-01-10T09:39:50;-4.40;90.10
28767;DHT22;15921;52.034;20.650;2024-01-10T09:42:18;-4.30;90.00
28767;DHT22;15921;52.034;20.650;2024-01-10T09:44:45;-4.20;89.60
28767;DHT22;15921;52.034;20.650;2024-01-10T09:47:12;-4.10;89.20
28767;DHT22;15921;52.034;20.650;2024-01-10T09:49:38;-4.10;88.50
28767;DHT22;15921;52.034;20.650;2024-01-10T09:52:05;-4.00;87.90
28767;DHT22;15921;52.034;20.650;2024-01-10T09:54:38;-4.00;86.70
28767;DHT22;15921;52.034;20.650;2024-01-10T09:57:05;-4.00;86.80
28767;DHT22;15921;52.034;20.650;2024-01-10T09:59:31;-4.00;86.90
28767;DHT22;15921;52.034;20.650;2024-01-10T10:01:57;-3.90;86.90
28767;DHT22;15921;52.034;20.650;2024-01-10T10:04:27;-3.90;86.40
28767;DHT22;15921;52.034;20.650;2024-01-10T10:07:00;-3.80;86.70
28767;DHT22;15921;52.034;20.650;2024-01-10T10:09:30;-3.70;86.50
28767;DHT22;15921;52.034;20.650;2024-01-10T10:11:56;-3.70;85.30
28767;DHT22;15921;52.034;20.650;2024-01-10T10:14:23;-3.60;85.20
28767;DHT22;15921;52.034;20.650;2024-01-10T10:16:51;-3.60;85.20
28767;DHT22;15921;52.034;20.650;2024-01-10T10:19:24;-3.40;85.80
28767;DHT22;15921;52.034;20.650;2024-01-10T10:21:50;-3.30;85.30
28767;DHT22;15921;52.034;20.650;2024-01-10T10:24:17;-3.30;84.90
28767;DHT22;15921;52.034;20.650;2024-01-10T10:26:42;-3.20;83.90
28767;DHT22;15921;52.034;20.650;2024-01-10T10:29:09;-3.20;84.10
28767;DHT22;15921;52.034;20.650;2024-01-10T10:31:35;-3.10;83.70
28767;DHT22;15921;52.034;20.650;2024-01-10T10:34:02;-3.00;83.50
28767;DHT22;15921;52.034;20.650;2024-01-10T10:36:31;-2.90;82.60
28767;DHT22;15921;52.034;20.650;2024-01-10T10:39:00;-2.90;82.00
28767;DHT22;15921;52.034;20.650;2024-01-10T10:41:31;-2.90;81.40
28767;DHT22;15921;52.034;20.650;2024-01-10T10:43:58;-2.80;81.50
28767;DHT22;15921;52.034;20.650;2024-01-10T10:46:27;-2.80;81.60
28767;DHT22;15921;52.034;20.650;2024-01-10T10:48:54;-2.70;80.60
28767;DHT22;15921;52.034;20.650;2024-01-10T10:51:27;-2.60;81.00
28767;DHT22;15921;52.034;20.650;2024-01-10T10:53:59;-2.50;80.10
28767;DHT22;15921;52.034;20.650;2024-01-10T10:56:29;-2.50;78.90
28767;DHT22;15921;52.034;20.650;2024-01-10T10:58:57;-2.50;77.50
28767;DHT22;15921;52.034;20.650;2024-01-10T11:01:25;-2.50;77.70
28767;DHT22;15921;52.034;20.650;2024-01-10T11:03:53;-2.40;77.90
28767;DHT22;15921;52.034;20.650;2024-01-10T11:06:21;-2.30;78.40
28767;DHT22;15921;52.034;20.650;2024-01-10T11:09:05;-2.20;76.40
28767;DHT22;15921;52.034;20.650;2024-01-10T11:17:29;-1.80;76.90
28767;DHT22;15921;52.034;20.650;2024-01-10T11:23:03;-1.60;75.00
28767;DHT22;15921;52.034;20.650;2024-01-10T11:25:31;-1.50;74.00
28767;DHT22;15921;52.034;20.650;2024-01-10T11:27:57;-1.40;73.90
28767;DHT22;15921;52.034;20.650;2024-01-10T11:30:47;-1.20;74.70
28767;DHT22;15921;52.034;20.650;2024-01-10T11:33:21;-1.10;74.40
28767;DHT22;15921;52.034;20.650;2024-01-10T11:41:21;-0.70;74.20
28767;DHT22;15921;52.034;20.650;2024-01-10T11:46:39;-0.30;73.40
28767;DHT22;15921;52.034;20.650;2024-01-10T11:49:13;-0.20;72.60
28767;DHT22;15921;52.034;20.650;2024-01-10T11:51:46;-0.10;72.30
28767;DHT22;15921;52.034;20.650;2024-01-10T11:54:12;0.60;71.90
28767;DHT22;15921;52.034;20.650;2024-01-10T11:56:42;1.50;70.20
28767;DHT22;15921;52.034;20.650;2024-01-10T11:59:10;2.70;68.20
28767;DHT22;15921;52.034;20.650;2024-01-10T12:01:37;4.10;65.70
28767;DHT22;15921;52.034;20.650;2024-01-10T12:04:04;5.40;59.70
28767;DHT22;15921;52.034;20.650;2024-01-10T12:06:31;6.60;58.70
28767;DHT22;15921;52.034;20.650;2024-01-10T12:08:58;7.50;55.50
28767;DHT22;15921;52.034;20.650;2024-01-10T12:11:25;7.60;52.50
28767;DHT22;15921;52.034;20.650;2024-01-10T12:13:50;7.50;52.60
28767;DHT22;15921;52.034;20.650;2024-01-10T12:16:16;8.00;52.80
28767;DHT22;15921;52.034;20.650;2024-01-10T12:18:43;8.40;51.10
28767;DHT22;15921;52.034;20.650;2024-01-10T12:21:10;9.00;50.30
28767;DHT22;15921;52.034;20.650;2024-01-10T12:23:39;9.20;48.90
28767;DHT22;15921;52.034;20.650;2024-01-10T12:26:09;8.90;48.00
28767;DHT22;15921;52.034;20.650;2024-01-10T12:28:37;8.50;48.00
28767;DHT22;15921;52.034;20.650;2024-01-10T12:31:06;8.60;48.40
28767;DHT22;15921;52.034;20.650;2024-01-10T12:33:36;8.90;48.40
28767;DHT22;15921;52.034;20.650;2024-01-10T12:36:11;9.10;47.30
28767;DHT22;15921;52.034;20.650;2024-01-10T12:38:40;9.10;47.30
28767;DHT22;15921;52.034;20.650;2024-01-10T12:41:06;8.70;46.80
28767;DHT22;15921;52.034;20.650;2024-01-10T12:43:34;9.10;48.10
28767;DHT22;15921;52.034;20.650;2024-01-10T12:46:11;9.50;47.30
28767;DHT22;15921;52.034;20.650;2024-01-10T12:48:40;10.00;46.30
28767;DHT22;15921;52.034;20.650;2024-01-10T12:51:10;10.00;45.80
28767;DHT22;15921;52.034;20.650;2024-01-10T12:53:43;9.60;45.50
28767;DHT22;15921;52.034;20.650;2024-01-10T12:56:10;9.10;46.00
28767;DHT22;15921;52.034;20.650;2024-01-10T12:58:40;9.20;46.20
28767;DHT22;15921;52.034;20.650;2024-01-10T13:01:10;9.70;46.00
28767;DHT22;15921;52.034;20.650;2024-01-10T13:03:38;9.70;44.90
28767;DHT22;15921;52.034;20.650;2024-01-10T13:06:04;9.60;45.60
28767;DHT22;15921;52.034;20.650;2024-01-10T13:08:30;8.90;45.90
28767;DHT22;15921;52.034;20.650;2024-01-10T13:10:58;8.10;46.00
28767;DHT22;15921;52.034;20.650;2024-01-10T13:13:25;7.30;47.60
28767;DHT22;15921;52.034;20.650;2024-01-10T13:15:51;6.30;48.60
28767;DHT22;15921;52.034;20.650;2024-01-10T13:18:17;5.00;49.70
28767;DHT22;15921;52.034;20.650;2024-01-10T13:20:43;3.90;51.70
28767;DHT22;15921;52.034;20.650;2024-01-10T13:23:10;3.10;53.40
28767;DHT22;15921;52.034;20.650;2024-01-10T13:25:36;2.50;54.60
28767;DHT22;15921;52.034;20.650;2024-01-10T13:28:06;2.20;55.70
28767;DHT22;15921;52.034;20.650;2024-01-10T13:30:32;1.90;56.70
28767;DHT22;15921;52.034;20.650;2024-01-10T13:32:57;2.80;57.60
28767;DHT22;15921;52.034;20.650;2024-01-10T13:35:24;4.10;56.80
28767;DHT22;15921;52.034;20.650;2024-01-10T13:37:50;4.50;54.60
28767;DHT22;15921;52.034;20.650;2024-01-10T13:40:16;4.60;54.20
28767;DHT22;15921;52.034;20.650;2024-01-10T13:42:45;4.70;53.50
28767;DHT22;15921;52.034;20.650;2024-01-10T13:45:11;4.60;53.80
28767;DHT22;15921;52.034;20.650;2024-01-10T13:47:37;4.50;53.70
28767;DHT22;15921;52.034;20.650;2024-01-10T13:50:07;4.00;54.00
28767;DHT22;15921;52.034;20.650;2024-01-10T13:52:34;3.60;54.80
28767;DHT22;15921;52.034;20.650;2024-01-10T13:55:00;3.10;55.30
28767;DHT22;15921;52.034;20.650;2024-01-10T13:57:26;2.30;56.60
28767;DHT22;15921;52.034;20.650;2024-01-10T13:59:52;1.60;57.80
28767;DHT22;15921;52.034;20.650;2024-01-10T14:02:22;0.80;59.10
28767;DHT22;15921;52.034;20.650;2024-01-10T14:04:48;0.20;60.70
28767;DHT22;15921;52.034;20.650;2024-01-10T14:07:13;-0.30;62.20
28767;DHT22;15921;52.034;20.650;2024-01-10T14:09:39;-0.60;63.40
28767;DHT22;15921;52.034;20.650;2024-01-10T14:12:05;-0.80;64.40
28767;DHT22;15921;52.034;20.650;2024-01-10T14:14:31;-1.00;65.30
28767;DHT22;15921;52.034;20.650;2024-01-10T14:17:00;-1.00;66.10
28767;DHT22;15921;52.034;20.650;2024-01-10T14:19:26;-0.80;66.30
28767;DHT22;15921;52.034;20.650;2024-01-10T14:21:52;-0.80;66.20
28767;DHT22;15921;52.034;20.650;2024-01-10T14:24:18;-0.90;66.20
28767;DHT22;15921;52.034;20.650;2024-01-10T14:26:43;-1.10;66.80
28767;DHT22;15921;52.034;20.650;2024-01-10T14:29:10;-1.20;67.30
28767;DHT22;15921;52.034;20.650;2024-01-10T14:31:36;-1.20;67.80
28767;DHT22;15921;52.034;20.650;2024-01-10T14:34:02;-1.50;68.20
28767;DHT22;15921;52.034;20.650;2024-01-10T14:36:28;-1.70;68.90
28767;DHT22;15921;52.034;20.650;2024-01-10T14:38:53;-1.90;69.50
28767;DHT22;15921;52.034;20.650;2024-01-10T14:41:21;-2.10;70.30
28767;DHT22;15921;52.034;20.650;2024-01-10T14:43:46;-2.30;70.90
28767;DHT22;15921;52.034;20.650;2024-01-10T14:46:12;-2.50;71.50
28767;DHT22;15921;52.034;20.650;2024-01-10T14:48:38;-2.60;72.10
28767;DHT22;15921;52.034;20.650;2024-01-10T14:51:04;-2.70;72.60
28767;DHT22;15921;52.034;20.650;2024-01-10T14:53:30;-2.90;73.20
28767;DHT22;15921;52.034;20.650;2024-01-10T14:55:56;-3.00;74.00
28767;DHT22;15921;52.034;20.650;2024-01-10T14:58:22;-3.10;74.60
28767;DHT22;15921;52.034;20.650;2024-01-10T15:00:48;-3.20;75.00
28767;DHT22;15921;52.034;20.650;2024-01-10T15:03:13;-3.30;75.60
28767;DHT22;15921;52.034;20.650;2024-01-10T15:05:41;-3.40;76.30
28767;DHT22;15921;52.034;20.650;2024-01-10T15:08:08;-3.50;76.60
28767;DHT22;15921;52.034;20.650;2024-01-10T15:10:37;-3.60;76.90
28767;DHT22;15921;52.034;20.650;2024-01-10T15:13:10;-3.60;77.30
28767;DHT22;15921;52.034;20.650;2024-01-10T15:15:39;-3.70;77.70
28767;DHT22;15921;52.034;20.650;2024-01-10T15:18:05;-3.80;78.00
28767;DHT22;15921;52.034;20.650;2024-01-10T15:20:31;-3.80;78.30
28767;DHT22;15921;52.034;20.650;2024-01-10T15:22:57;-3.90;78.60
28767;DHT22;15921;52.034;20.650;2024-01-10T15:25:26;-4.00;79.00
28767;DHT22;15921;52.034;20.650;2024-01-10T15:27:52;-4.00;79.20
28767;DHT22;15921;52.034;20.650;2024-01-10T15:30:18;-4.10;79.50
28767;DHT22;15921;52.034;20.650;2024-01-10T15:32:44;-4.10;80.00